createdAt,value
2019-05-06T00:01:36.133Z,99930.88
2019-05-06T00:04:05.291Z,99928.73
2019-05-06T00:06:34.871Z,99928.56
2019-05-06T00:09:05.598Z,99931.11
2019-05-06T00:11:34.902Z,99928.42
2019-05-06T00:14:04.253Z,99925.53
2019-05-06T00:16:34.652Z,99928.85
2019-05-06T00:19:04.986Z,99934.02
2019-05-06T00:21:35.561Z,99927.34
2019-05-06T00:24:05.119Z,99927.91
2019-05-06T00:26:57.241Z,99925.22
2019-05-06T00:29:29.024Z,99925.60
2019-05-06T00:31:58.163Z,99929.67
2019-05-06T00:34:27.312Z,99928.12
2019-05-06T00:36:56.538Z,99924.82
2019-05-06T00:39:38.642Z,99933.23
2019-05-06T00:42:42.035Z,99937.26
2019-05-06T00:45:13.551Z,99931.87
2019-05-06T00:47:44.339Z,99935.36
2019-05-06T00:50:14.338Z,99933.92
2019-05-06T00:52:44.746Z,99936.11
2019-05-06T00:55:13.893Z,99934.94
2019-05-06T00:57:45.925Z,99937.62
2019-05-06T01:00:24.260Z,99936.41
2019-05-06T01:02:54.251Z,99937.12
2019-05-06T01:05:24.438Z,99940.44
2019-05-06T01:07:54.979Z,99939.43
2019-05-06T01:10:24.529Z,99939.42
2019-05-06T01:13:24.058Z,99945.48
2019-05-06T01:15:54.674Z,99941.11
2019-05-06T01:18:24.505Z,99944.08
2019-05-06T01:21:09.909Z,99939.76
2019-05-06T01:23:41.242Z,99940.05
2019-05-06T01:26:10.622Z,99941.94
2019-05-06T01:28:39.914Z,99943.49
2019-05-06T01:31:09.053Z,99938.28
2019-05-06T01:33:38.239Z,99941.01
2019-05-06T01:36:07.466Z,99943.20
2019-05-06T01:38:44.376Z,99949.98
2019-05-06T01:41:24.361Z,99953.85
2019-05-06T01:43:54.598Z,99953.02
2019-05-06T01:46:24.538Z,99946.56
2019-05-06T01:48:53.785Z,99958.70
2019-05-06T01:51:24.147Z,99959.77
2019-05-06T01:53:54.380Z,99963.20
2019-05-06T01:56:24.166Z,99969.38
2019-05-06T01:58:53.734Z,99969.49
2019-05-06T02:01:24.875Z,99969.56
2019-05-06T02:03:53.954Z,99969.27
2019-05-06T02:06:24.983Z,99964.66
2019-05-06T02:08:54.288Z,99964.45
2019-05-06T02:11:24.109Z,99969.92
2019-05-06T02:13:53.860Z,99969.92
2019-05-06T02:16:24.086Z,99965.50
2019-05-06T02:18:54.080Z,99969.52
2019-05-06T02:21:41.094Z,99972.39
2019-05-06T02:24:14.837Z,99968.91
2019-05-06T02:26:44.105Z,99975.05
2019-05-06T02:29:15.795Z,99978.30
2019-05-06T02:32:17.364Z,99978.30
2019-05-06T02:34:47.523Z,99972.33
2019-05-06T02:37:25.162Z,99977.00
2019-05-06T02:39:53.514Z,99975.14
2019-05-06T02:42:23.869Z,99982.89
2019-05-06T02:44:54.359Z,99990.80
2019-05-06T02:47:45.632Z,99981.44
2019-05-06T02:50:17.394Z,99983.64
2019-05-06T02:52:46.653Z,99985.55
2019-05-06T02:55:15.859Z,99987.38
2019-05-06T02:57:45.004Z,99985.81
2019-05-06T03:00:16.414Z,99989.12
2019-05-06T03:02:48.203Z,99988.74
2019-05-06T03:05:16.588Z,99990.58
2019-05-06T03:07:45.792Z,100000.58
2019-05-06T03:10:16.285Z,99994.23
2019-05-06T03:12:45.418Z,99991.94
2019-05-06T03:15:16.717Z,99992.59
2019-05-06T03:17:46.200Z,99994.09
2019-05-06T03:20:26.006Z,99991.00
2019-05-06T03:23:04.017Z,99987.58
2019-05-06T03:25:35.235Z,99993.03
2019-05-06T03:28:06.437Z,99990.08
2019-05-06T03:30:36.607Z,99994.33
2019-05-06T03:33:44.622Z,99993.17
2019-05-06T03:35:56.104Z,99993.78
2019-05-06T03:38:07.979Z,99988.84
2019-05-06T03:40:41.675Z,100001.83
2019-05-06T03:43:07.979Z,99996.16
2019-05-06T03:45:46.997Z,100000.31
2019-05-06T03:48:23.789Z,100003.28
2019-05-06T03:50:55.594Z,100004.05
2019-05-06T03:53:24.063Z,100011.12
2019-05-06T03:55:54.305Z,100005.14
2019-05-06T03:58:26.887Z,100006.19
2019-05-06T04:00:58.629Z,100008.44
2019-05-06T04:03:42.677Z,100009.05
2019-05-06T04:05:58.876Z,100009.73
2019-05-06T04:08:28.652Z,100009.52
2019-05-06T04:10:57.896Z,100007.56
2019-05-06T04:13:27.232Z,100010.33
2019-05-06T04:16:23.116Z,100008.50
2019-05-06T04:19:00.216Z,100010.41
2019-05-06T04:21:43.673Z,100011.31
2019-05-06T04:24:22.879Z,100019.66
2019-05-06T04:27:04.590Z,100015.03
2019-05-06T04:29:35.588Z,100017.78
2019-05-06T04:32:05.364Z,100019.42
2019-05-06T04:34:34.964Z,100022.78
2019-05-06T04:37:04.112Z,100034.17
2019-05-06T04:39:33.342Z,100035.59
2019-05-06T04:42:03.520Z,100033.17
2019-05-06T04:44:33.186Z,100040.91
2019-05-06T04:47:05.267Z,100040.92
2019-05-06T04:49:34.148Z,100043.11
2019-05-06T04:52:03.764Z,100039.08
2019-05-06T04:54:33.627Z,100044.55
2019-05-06T04:57:05.055Z,100053.81
2019-05-06T04:59:43.270Z,100049.10
2019-05-06T05:02:15.031Z,100048.11
2019-05-06T05:04:44.375Z,100055.18
2019-05-06T05:07:13.783Z,100055.33
2019-05-06T05:09:43.363Z,100060.50
2019-05-06T05:12:22.675Z,100058.45
2019-05-06T05:14:58.387Z,100063.30
2019-05-06T05:17:38.239Z,100069.52
2019-05-06T05:20:08.011Z,100072.08
2019-05-06T05:22:37.192Z,100074.89
2019-05-06T05:25:06.675Z,100080.50
2019-05-06T05:27:35.909Z,100087.23
2019-05-06T05:30:05.735Z,100084.20
2019-05-06T05:32:34.982Z,100082.62
2019-05-06T05:35:04.487Z,100085.16
2019-05-06T05:37:33.756Z,100085.38
2019-05-06T05:40:03.265Z,100083.77
2019-05-06T05:42:39.661Z,100094.27
2019-05-06T05:45:09.430Z,100094.97
2019-05-06T05:47:38.824Z,100088.52
2019-05-06T05:50:14.483Z,100092.72
2019-05-06T05:52:43.689Z,100098.06
2019-05-06T05:55:13.411Z,100091.63
2019-05-06T05:57:43.300Z,100100.12
2019-05-06T06:00:13.834Z,100107.31
2019-05-06T06:02:43.830Z,100109.88
2019-05-06T06:05:13.136Z,100113.19
2019-05-06T06:07:42.647Z,100112.45
2019-05-06T06:10:22.566Z,100107.11
2019-05-06T06:12:52.913Z,100109.88
2019-05-06T06:15:44.101Z,100112.42
2019-05-06T06:18:22.417Z,100111.34
2019-05-06T06:21:18.737Z,100107.36
2019-05-06T06:23:42.969Z,100096.95
2019-05-06T06:26:12.255Z,100100.76
2019-05-06T06:28:42.585Z,100108.44
2019-05-06T06:31:26.104Z,100102.29
2019-05-06T06:34:01.924Z,100103.98
2019-05-06T06:36:38.174Z,100109.24
2019-05-06T06:39:20.222Z,100106.04
2019-05-06T06:41:49.482Z,100103.85
2019-05-06T06:44:22.179Z,100106.90
2019-05-06T06:46:52.463Z,100105.47
2019-05-06T06:49:22.274Z,100105.84
2019-05-06T06:51:53.166Z,100103.69
2019-05-06T06:54:22.911Z,100098.52
2019-05-06T06:57:12.705Z,100097.59
2019-05-06T06:59:48.300Z,100096.93
2019-05-06T07:02:37.027Z,100096.05
2019-05-06T07:05:27.626Z,100097.63
2019-05-06T07:07:48.073Z,100091.94
2019-05-06T07:10:35.100Z,100096.23
2019-05-06T07:13:04.402Z,100089.61
2019-05-06T07:15:33.879Z,100094.59
2019-05-06T07:18:03.208Z,100095.55
2019-05-06T07:20:36.521Z,100091.59
2019-05-06T07:23:24.515Z,100095.13
2019-05-06T07:25:54.579Z,100099.16
2019-05-06T07:28:24.552Z,100097.95
2019-05-06T07:30:54.301Z,100101.06
2019-05-06T07:33:25.864Z,100097.88
2019-05-06T07:35:55.061Z,100098.25
2019-05-06T07:38:24.217Z,100091.20
2019-05-06T07:41:04.177Z,100098.72
2019-05-06T07:43:38.507Z,100103.92
2019-05-06T07:46:16.004Z,100105.75
2019-05-06T07:48:45.200Z,100096.75
2019-05-06T07:51:14.513Z,100100.48
2019-05-06T07:53:43.900Z,100099.88
2019-05-06T07:56:13.148Z,100096.31
2019-05-06T07:58:43.314Z,100092.38
2019-05-06T08:01:13.623Z,100099.56
2019-05-06T08:03:43.184Z,100091.75
2019-05-06T08:06:13.189Z,100104.03
2019-05-06T08:08:43.458Z,100093.86
2019-05-06T08:11:12.810Z,100088.48
2019-05-06T08:13:43.530Z,100094.66
2019-05-06T08:16:13.299Z,100095.97
2019-05-06T08:18:42.782Z,100099.98
2019-05-06T08:21:22.341Z,100094.50
2019-05-06T08:23:52.429Z,100094.97
2019-05-06T08:26:22.490Z,100084.59
2019-05-06T08:28:52.619Z,100082.38
2019-05-06T08:31:22.984Z,100082.27
2019-05-06T08:33:52.636Z,100079.77
2019-05-06T08:36:43.191Z,100082.45
2019-05-06T08:39:13.112Z,100080.08
2019-05-06T08:41:43.337Z,100079.00
2019-05-06T08:44:12.832Z,100075.17
2019-05-06T08:46:43.336Z,100064.61
2019-05-06T08:49:12.836Z,100072.45
2019-05-06T08:51:53.069Z,100075.69
2019-05-06T08:54:36.564Z,100072.80
2019-05-06T08:57:05.742Z,100072.80
2019-05-06T08:59:35.006Z,100082.94
2019-05-06T09:02:04.863Z,100095.30
2019-05-06T09:04:34.016Z,100095.19
2019-05-06T09:07:03.173Z,100091.22
2019-05-06T09:09:32.667Z,100096.64
2019-05-06T09:12:02.637Z,100088.04
2019-05-06T09:14:32.647Z,100091.85
2019-05-06T09:17:02.843Z,100092.56
2019-05-06T09:19:33.141Z,100090.25
2019-05-06T09:22:02.699Z,100092.34
2019-05-06T09:24:32.205Z,100091.27
2019-05-06T09:27:22.490Z,100097.09
2019-05-06T09:29:57.213Z,100097.42
2019-05-06T09:32:35.900Z,100093.27
2019-05-06T09:35:03.133Z,100088.15
2019-05-06T09:37:32.681Z,100095.14
2019-05-06T09:40:02.866Z,100096.15
2019-05-06T09:42:32.286Z,100084.24
2019-05-06T09:45:02.265Z,100089.92
2019-05-06T09:47:56.423Z,100089.10
2019-05-06T09:50:50.679Z,100083.73
2019-05-06T09:53:30.443Z,100092.73
2019-05-06T09:56:23.035Z,100083.00
2019-05-06T09:58:53.032Z,100072.48
2019-05-06T10:01:22.554Z,100083.34
2019-05-06T10:03:52.939Z,100080.73
2019-05-06T10:06:22.490Z,100080.18
2019-05-06T10:08:51.736Z,100075.52
2019-05-06T10:11:22.328Z,100072.38
2019-05-06T10:13:52.454Z,100066.92
2019-05-06T10:16:21.863Z,100062.72
2019-05-06T10:18:52.416Z,100059.25
2019-05-06T10:21:22.944Z,100062.34
2019-05-06T10:23:52.835Z,100074.81
2019-05-06T10:26:23.439Z,100083.56
2019-05-06T10:29:02.461Z,100079.61
2019-05-06T10:31:36.437Z,100075.02
2019-05-06T10:34:13.987Z,100072.69
2019-05-06T10:36:53.796Z,100082.82
2019-05-06T10:39:25.907Z,100082.82
2019-05-06T10:42:23.243Z,100078.73
2019-05-06T10:45:03.037Z,100083.36
2019-05-06T10:47:33.041Z,100075.03
2019-05-06T10:50:02.368Z,100078.33
2019-05-06T10:53:02.937Z,100072.11
2019-05-06T10:55:32.617Z,100071.71
2019-05-06T10:58:02.638Z,100069.88
2019-05-06T11:00:33.175Z,100073.34
2019-05-06T11:03:22.719Z,100070.34
2019-05-06T11:05:53.408Z,100070.05
2019-05-06T11:08:23.032Z,100072.98
2019-05-06T11:10:53.512Z,100066.14
2019-05-06T11:13:24.456Z,100057.13
2019-05-06T11:15:55.627Z,100054.06
2019-05-06T11:18:24.975Z,100048.72
2019-05-06T11:20:56.192Z,100046.96
2019-05-06T11:23:24.991Z,100046.96
2019-05-06T11:25:54.146Z,100043.13
2019-05-06T11:29:04.740Z,100048.58
2019-05-06T11:31:55.890Z,100041.39
2019-05-06T11:34:44.247Z,100043.06
2019-05-06T11:37:43.814Z,100039.12
2019-05-06T11:40:02.237Z,100036.91
2019-05-06T11:42:35.549Z,100045.56
2019-05-06T11:45:03.134Z,100041.60
2019-05-06T11:47:32.768Z,100039.72
2019-05-06T11:50:02.476Z,100042.02
2019-05-06T11:52:34.683Z,100038.09
2019-05-06T11:55:03.863Z,100040.66
2019-05-06T11:57:33.000Z,100042.64
2019-05-06T12:00:03.101Z,100028.80
2019-05-06T12:02:33.050Z,100039.56
2019-05-06T12:05:02.525Z,100042.91
2019-05-06T12:07:33.249Z,100033.56
2019-05-06T12:10:02.683Z,100035.23
2019-05-06T12:12:31.872Z,100034.92
2019-05-06T12:15:03.472Z,100036.55
2019-05-06T12:17:32.034Z,100040.23
2019-05-06T12:20:02.913Z,100040.66
2019-05-06T12:22:38.022Z,99982.09
2019-05-06T12:25:12.668Z,100044.27
2019-05-06T12:27:44.469Z,100042.91
2019-05-06T12:30:19.333Z,100042.73
2019-05-06T12:33:00.170Z,100042.73
2019-05-06T12:35:29.371Z,100041.66
2019-05-06T12:38:05.205Z,100042.71
2019-05-06T12:40:32.089Z,100036.84
2019-05-06T12:43:18.791Z,100036.20
2019-05-06T12:45:49.863Z,100029.72
2019-05-06T12:48:22.923Z,100049.92
2019-05-06T12:50:52.599Z,100041.82
2019-05-06T12:53:23.173Z,100042.92
2019-05-06T12:55:52.465Z,100034.89
2019-05-06T12:58:23.374Z,100035.86
2019-05-06T13:00:54.269Z,100031.08
2019-05-06T13:03:23.625Z,100035.95
2019-05-06T13:05:52.953Z,100035.83
2019-05-06T13:08:27.557Z,100038.94
2019-05-06T13:10:53.113Z,100030.50
2019-05-06T13:13:22.595Z,100035.40
2019-05-06T13:15:52.824Z,100034.03
2019-05-06T13:18:23.220Z,100038.30
2019-05-06T13:20:52.981Z,100041.46
2019-05-06T13:23:41.241Z,100046.30
2019-05-06T13:26:12.689Z,100034.48
2019-05-06T13:28:44.924Z,100038.74
2019-05-06T13:31:20.615Z,100030.37
2019-05-06T13:34:02.997Z,100031.62
2019-05-06T13:36:33.344Z,100026.00
2019-05-06T13:39:14.068Z,100030.20
2019-05-06T13:41:33.878Z,100030.81
2019-05-06T13:44:13.966Z,100029.00
2019-05-06T13:46:46.726Z,100034.18
2019-05-06T13:49:42.843Z,100034.18
2019-05-06T13:52:12.978Z,100028.55
2019-05-06T13:54:42.478Z,100026.69
2019-05-06T13:57:12.674Z,100037.42
2019-05-06T13:59:44.125Z,100035.45
2019-05-06T14:02:33.513Z,100037.34
2019-05-06T14:05:02.962Z,100037.00
2019-05-06T14:07:34.478Z,100035.70
2019-05-06T14:10:03.474Z,100036.40
2019-05-06T14:12:33.331Z,100028.34
2019-05-06T14:15:04.322Z,100031.17
2019-05-06T14:17:33.977Z,100028.71
2019-05-06T14:20:03.210Z,100029.27
2019-05-06T14:22:32.797Z,100020.59
2019-05-06T14:25:19.547Z,100017.43
2019-05-06T14:27:52.667Z,100018.52
2019-05-06T14:30:39.523Z,100012.59
2019-05-06T14:33:12.727Z,100020.50
2019-05-06T14:35:42.990Z,100021.23
2019-05-06T14:38:13.501Z,100021.17
2019-05-06T14:41:07.074Z,100021.31
2019-05-06T14:43:42.810Z,100021.70
2019-05-06T14:46:11.952Z,100023.57
2019-05-06T14:48:42.998Z,100019.55
2019-05-06T14:51:12.998Z,100019.90
2019-05-06T14:53:43.603Z,100018.72
2019-05-06T14:56:38.295Z,100020.13
2019-05-06T14:59:08.000Z,100023.36
2019-05-06T15:01:38.937Z,100023.36
2019-05-06T15:04:08.218Z,100019.39
2019-05-06T15:06:37.633Z,100017.35
2019-05-06T15:09:13.109Z,100016.83
2019-05-06T15:11:43.349Z,100011.37
2019-05-06T15:14:13.232Z,100018.92
2019-05-06T15:16:42.582Z,100016.28
2019-05-06T15:19:12.905Z,100017.55
2019-05-06T15:21:42.853Z,100017.48
2019-05-06T15:24:13.823Z,100020.88
2019-05-06T15:26:43.302Z,100016.72
2019-05-06T15:29:12.785Z,100017.09
2019-05-06T15:39:08.872Z,100023.02
2019-05-06T15:41:38.125Z,100030.25
2019-05-06T15:44:07.499Z,100021.09
2019-05-06T15:46:36.816Z,100025.86
2019-05-06T15:49:05.989Z,100024.30
2019-05-06T15:51:35.170Z,100026.55
2019-05-06T15:54:05.733Z,100024.06
2019-05-06T15:56:34.977Z,100025.84
2019-05-06T15:59:04.661Z,100022.19
2019-05-06T16:01:34.366Z,100020.27
2019-05-06T16:04:03.542Z,100013.77
2019-05-06T16:06:33.262Z,100013.15
2019-05-06T16:09:03.594Z,100014.81
2019-05-06T16:11:33.419Z,100015.64
2019-05-06T16:14:03.049Z,100020.03
2019-05-06T16:16:33.249Z,100019.20
2019-05-06T16:19:04.103Z,100017.89
2019-05-06T16:21:33.631Z,100018.97
2019-05-06T16:24:14.166Z,100019.70
2019-05-06T16:26:45.694Z,100017.91
2019-05-06T16:29:14.384Z,100021.11
2019-05-06T16:31:43.681Z,100023.52
2019-05-06T16:34:14.725Z,100017.08
2019-05-06T16:36:44.046Z,100022.30
2019-05-06T16:39:13.325Z,100027.95
2019-05-06T16:41:44.718Z,100025.59
2019-05-06T16:44:13.855Z,100027.27
2019-05-06T16:46:43.131Z,100026.09
2019-05-06T16:49:14.184Z,100026.57
2019-05-06T16:51:44.200Z,100022.41
2019-05-06T16:54:15.216Z,100021.92
2019-05-06T16:56:52.773Z,100029.40
2019-05-06T16:59:23.760Z,100024.77
2019-05-06T17:01:52.827Z,100029.48
2019-05-06T17:04:32.863Z,100029.27
2019-05-06T17:07:03.101Z,100031.99
2019-05-06T17:09:33.214Z,100030.46
2019-05-06T17:12:04.697Z,100031.66
2019-05-06T17:14:33.641Z,100026.44
2019-05-06T17:17:03.361Z,100027.83
2019-05-06T17:19:33.032Z,100032.81
2019-05-06T17:22:03.027Z,100028.25
2019-05-06T17:24:33.074Z,100028.62
2019-05-06T17:27:02.844Z,100031.43
2019-05-06T17:30:06.289Z,100028.35
2019-05-06T17:32:38.107Z,100029.45
2019-05-06T17:35:08.199Z,100035.39
2019-05-06T17:38:14.659Z,100034.71
2019-05-06T17:40:44.028Z,100030.91
2019-05-06T17:43:13.284Z,100026.72
2019-05-06T17:46:03.977Z,100025.18
2019-05-06T17:48:37.324Z,100024.24
2019-05-06T17:51:14.448Z,100022.90
2019-05-06T17:53:46.847Z,100025.50
2019-05-06T17:56:16.151Z,100022.53
2019-05-06T17:58:45.405Z,100024.53
2019-05-06T18:01:17.146Z,100021.14
2019-05-06T18:03:46.342Z,100029.35
2019-05-06T18:06:15.624Z,100029.60
2019-05-06T18:08:44.866Z,100037.73
2019-05-06T18:11:14.123Z,100038.33
2019-05-06T18:13:43.264Z,100031.37
2019-05-06T18:16:14.391Z,100033.97
2019-05-06T18:18:43.607Z,100034.75
2019-05-06T18:21:12.918Z,100035.66
2019-05-06T18:23:42.417Z,100045.92
2019-05-06T18:26:11.685Z,100048.75
2019-05-06T18:28:43.067Z,100054.52
2019-05-06T18:31:12.557Z,100055.66
2019-05-06T18:33:43.155Z,100057.63
2019-05-06T18:36:13.043Z,100058.47
2019-05-06T18:38:42.508Z,100059.34
2019-05-06T18:41:12.099Z,100061.54
2019-05-06T18:43:42.303Z,100060.06
2019-05-06T18:46:12.318Z,100065.59
2019-05-06T18:48:42.715Z,100063.89
2019-05-06T18:51:12.662Z,100071.08
2019-05-06T18:53:42.304Z,100067.02
2019-05-06T18:56:12.644Z,100066.90
2019-05-06T18:58:42.893Z,100072.25
2019-05-06T19:01:13.255Z,100067.47
2019-05-06T19:03:49.131Z,100074.37
2019-05-06T19:06:18.364Z,100072.70
2019-05-06T19:08:53.401Z,100077.23
2019-05-06T19:11:22.677Z,100072.80
2019-05-06T19:13:52.661Z,100080.92
2019-05-06T19:16:22.372Z,100079.31
2019-05-06T19:18:52.383Z,100082.11
2019-05-06T19:21:24.301Z,100077.78
2019-05-06T19:23:54.812Z,100083.73
2019-05-06T19:26:23.744Z,100083.75
2019-05-06T19:28:53.020Z,100085.80
2019-05-06T19:31:22.925Z,100088.09
2019-05-06T19:33:52.727Z,100086.66
2019-05-06T19:36:23.471Z,100089.72
2019-05-06T19:38:52.907Z,100092.42
2019-05-06T19:41:22.413Z,100098.56
2019-05-06T19:43:52.467Z,100097.94
2019-05-06T19:46:21.670Z,100102.31
2019-05-06T19:48:52.404Z,100102.30
2019-05-06T19:51:22.583Z,100104.24
2019-05-06T19:53:51.956Z,100102.95
2019-05-06T19:56:23.186Z,100101.95
2019-05-06T19:58:52.662Z,100107.22
2019-05-06T20:01:22.898Z,100103.78
2019-05-06T20:03:52.607Z,100103.39
2019-05-06T20:06:37.618Z,100100.42
2019-05-06T20:09:39.311Z,100105.26
2019-05-06T20:12:13.525Z,100101.19
2019-05-06T20:14:42.738Z,100097.11
2019-05-06T20:17:12.894Z,100097.48
2019-05-06T20:19:42.680Z,100098.67
2019-05-06T20:22:12.993Z,100099.89
2019-05-06T20:24:42.617Z,100096.44
2019-05-06T20:27:13.311Z,100093.53
2019-05-06T20:29:42.869Z,100094.09
2019-05-06T20:32:12.302Z,100091.20
2019-05-06T20:34:42.895Z,100092.34
2019-05-06T20:37:12.880Z,100083.66
2019-05-06T20:39:43.320Z,100080.86
2019-05-06T20:42:12.952Z,100082.57
2019-05-06T20:44:43.316Z,100082.22
2019-05-06T20:47:13.235Z,100083.17
2019-05-06T20:49:43.173Z,100077.37
2019-05-06T20:52:12.496Z,100087.96
2019-05-06T20:54:42.711Z,100099.81
2019-05-06T20:57:12.417Z,100099.25
2019-05-06T20:59:42.100Z,100098.52
2019-05-06T21:02:12.483Z,100100.11
2019-05-06T21:04:43.113Z,100095.36
2019-05-06T21:07:12.596Z,100101.24
2019-05-06T21:09:43.170Z,100103.51
2019-05-06T21:12:12.546Z,100104.35
2019-05-06T21:14:42.185Z,100102.75
2019-05-06T21:17:12.374Z,100105.02
2019-05-06T21:19:41.818Z,100103.74
2019-05-06T21:22:13.095Z,100095.86
2019-05-06T21:24:43.078Z,100094.36
2019-05-06T21:27:12.514Z,100092.23
2019-05-06T21:29:42.096Z,100097.27
2019-05-06T21:32:11.443Z,100093.64
2019-05-06T21:34:43.102Z,100092.89
2019-05-06T21:37:12.247Z,100101.87
2019-05-06T21:39:42.400Z,100098.58
2019-05-06T21:42:12.254Z,100096.38
2019-05-06T21:44:42.905Z,100086.14
2019-05-06T21:47:12.084Z,100091.69
2019-05-06T21:49:42.172Z,100089.86
2019-05-06T21:52:13.130Z,100089.95
2019-05-06T21:54:43.411Z,100092.75
2019-05-06T21:57:15.805Z,100098.91
2019-05-06T21:59:46.028Z,100098.91
2019-05-06T22:02:16.917Z,100094.71
2019-05-06T22:04:46.070Z,100089.77
2019-05-06T22:07:15.316Z,100090.66
2019-05-06T22:09:44.506Z,100084.42
2019-05-06T22:12:13.659Z,100093.92
2019-05-06T22:14:42.932Z,100091.74
2019-05-06T22:17:14.161Z,100083.17
2019-05-06T22:19:42.937Z,100088.80
2019-05-06T22:22:14.654Z,100083.16
2019-05-06T22:24:48.447Z,100087.92
2019-05-06T22:27:18.537Z,100083.16
2019-05-06T22:29:47.806Z,100087.41
2019-05-06T22:32:17.067Z,100088.17
2019-05-06T22:34:46.297Z,100086.69
2019-05-06T22:37:15.517Z,100089.11
2019-05-06T22:39:44.801Z,100085.92
2019-05-06T22:42:13.926Z,100087.16
2019-05-06T22:44:43.389Z,100084.45
2019-05-06T22:47:12.515Z,100085.23
2019-05-06T22:49:41.643Z,100084.55
2019-05-06T22:52:12.603Z,100084.64
2019-05-06T22:54:43.351Z,100078.15
2019-05-06T22:57:12.626Z,100085.88
2019-05-06T22:59:42.774Z,100088.64
2019-05-06T23:02:19.944Z,100078.43
2019-05-06T23:04:53.064Z,100084.33
2019-05-06T23:07:22.566Z,100086.46
2019-05-06T23:09:52.169Z,100086.02
2019-05-06T23:12:23.153Z,100078.29
2019-05-06T23:14:53.051Z,100074.14
2019-05-06T23:17:22.141Z,100074.48
2019-05-06T23:19:52.773Z,100081.53
2019-05-06T23:22:22.755Z,100078.11
2019-05-06T23:24:54.086Z,100077.90
2019-05-06T23:27:23.364Z,100082.45
2019-05-06T23:29:52.734Z,100079.80
2019-05-06T23:32:22.958Z,100075.31
2019-05-06T23:34:52.497Z,100081.55
2019-05-06T23:37:23.006Z,100076.98
2019-05-06T23:40:33.163Z,100071.57
2019-05-06T23:43:37.767Z,100080.13
2019-05-06T23:46:42.885Z,100080.45
2019-05-06T23:49:47.632Z,100076.28
2019-05-06T23:52:52.149Z,100076.47
2019-05-06T23:55:56.955Z,100074.29
2019-05-06T23:58:24.476Z,100071.77
